Kinbrace, United Kingdom
Current Conditions -  °F | °C
As of 1:20 PM on Wednesday 26 Nov 2014 (Local Time) from EGPC Reporting Station
Few Clouds Few Clouds  
Wind Chill: 40°   Ceiling: Unl
Heat Index: 45°   Visibility: 6mi
Dew Point: 37°   Wind: 8mph
Humidity: 76%   Direction: 210°SSW
Pressure: 29.94"   Gusts: NA
Location:  58.4°N, 4.2°W
Report Text: EGPC 261320Z 21007KT 170V240 9999 FEW014 07/03 Q1014
Loading
Personal Weather Stations






























Interactive Weather Map New forecast layout! Learn more

10-Day Weather Forecast

Advertisements
Track Severe Weather on mobile